sensor_id;sensor_type;location;lat;lon;timestamp;pressure;altitude;pressure_sealevel;temperature;humidity
69980;BME280;57318;56.232;43.944;2023-05-02T00:00:32;99183.75;;;7.01;86.52
69980;BME280;57318;56.232;43.944;2023-05-02T00:02:59;99199.59;;;7.01;86.71
69980;BME280;57318;56.232;43.944;2023-05-02T00:05:26;99195.47;;;6.97;86.07
69980;BME280;57318;56.232;43.944;2023-05-02T00:07:51;99202.03;;;6.91;86.04
69980;BME280;57318;56.232;43.944;2023-05-02T00:10:18;99200.88;;;6.82;85.84
69980;BME280;57318;56.232;43.944;2023-05-02T00:12:43;99211.19;;;6.73;86.11
69980;BME280;57318;56.232;43.944;2023-05-02T00:15:09;99210.03;;;6.64;86.17
69980;BME280;57318;56.232;43.944;2023-05-02T00:17:36;99208.94;;;6.54;86.26
69980;BME280;57318;56.232;43.944;2023-05-02T00:20:02;99203.44;;;6.44;86.44
69980;BME280;57318;56.232;43.944;2023-05-02T00:22:30;99208.41;;;6.36;86.59
69980;BME280;57318;56.232;43.944;2023-05-02T00:24:57;99216.00;;;6.27;86.88
69980;BME280;57318;56.232;43.944;2023-05-02T00:27:23;99215.53;;;6.21;87.24
69980;BME280;57318;56.232;43.944;2023-05-02T00:29:49;99217.31;;;6.20;87.84
69980;BME280;57318;56.232;43.944;2023-05-02T00:32:17;99218.72;;;6.26;88.54
69980;BME280;57318;56.232;43.944;2023-05-02T00:34:43;99221.59;;;6.36;88.95
69980;BME280;57318;56.232;43.944;2023-05-02T00:37:09;99226.28;;;6.45;89.15
69980;BME280;57318;56.232;43.944;2023-05-02T00:39:35;99231.78;;;6.55;89.10
69980;BME280;57318;56.232;43.944;2023-05-02T00:42:01;99229.47;;;6.63;88.63
69980;BME280;57318;56.232;43.944;2023-05-02T00:44:27;99237.19;;;6.66;88.56
69980;BME280;57318;56.232;43.944;2023-05-02T00:46:56;99237.69;;;6.71;87.75
69980;BME280;57318;56.232;43.944;2023-05-02T00:49:23;99239.19;;;6.75;87.80
69980;BME280;57318;56.232;43.944;2023-05-02T00:51:49;99244.28;;;6.78;87.26
69980;BME280;57318;56.232;43.944;2023-05-02T00:54:15;99249.34;;;6.81;87.19
69980;BME280;57318;56.232;43.944;2023-05-02T00:56:40;99251.88;;;6.83;87.14
69980;BME280;57318;56.232;43.944;2023-05-02T00:59:07;99264.88;;;6.86;87.07
69980;BME280;57318;56.232;43.944;2023-05-02T01:01:56;99263.75;;;6.90;86.83
69980;BME280;57318;56.232;43.944;2023-05-02T01:04:47;99264.47;;;6.92;86.81
69980;BME280;57318;56.232;43.944;2023-05-02T01:12:57;99266.50;;;6.89;86.83
69980;BME280;57318;56.232;43.944;2023-05-02T01:15:25;99278.09;;;6.86;86.63
69980;BME280;57318;56.232;43.944;2023-05-02T01:17:51;99271.31;;;6.82;86.91
69980;BME280;57318;56.232;43.944;2023-05-02T01:20:22;99280.00;;;6.84;86.73
69980;BME280;57318;56.232;43.944;2023-05-02T01:22:48;99277.06;;;6.89;86.65
69980;BME280;57318;56.232;43.944;2023-05-02T01:30:26;99288.34;;;6.91;86.55
69980;BME280;57318;56.232;43.944;2023-05-02T01:32:54;99289.50;;;6.86;86.54
69980;BME280;57318;56.232;43.944;2023-05-02T01:35:22;99294.78;;;6.86;86.60
69980;BME280;57318;56.232;43.944;2023-05-02T01:37:51;99293.75;;;6.89;86.44
69980;BME280;57318;56.232;43.944;2023-05-02T01:40:19;99297.97;;;6.92;86.27
69980;BME280;57318;56.232;43.944;2023-05-02T01:42:49;99290.06;;;6.92;85.76
69980;BME280;57318;56.232;43.944;2023-05-02T01:45:16;99299.84;;;6.90;85.63
69980;BME280;57318;56.232;43.944;2023-05-02T01:47:44;99302.50;;;6.90;85.26
69980;BME280;57318;56.232;43.944;2023-05-02T01:50:13;99310.63;;;6.86;85.29
69980;BME280;57318;56.232;43.944;2023-05-02T01:52:41;99307.78;;;6.90;85.18
69980;BME280;57318;56.232;43.944;2023-05-02T01:55:10;99312.84;;;6.93;85.26
69980;BME280;57318;56.232;43.944;2023-05-02T01:57:39;99321.31;;;6.98;84.77
69980;BME280;57318;56.232;43.944;2023-05-02T02:00:07;99325.44;;;7.02;84.72
69980;BME280;57318;56.232;43.944;2023-05-02T02:02:35;99325.25;;;7.05;84.79
69980;BME280;57318;56.232;43.944;2023-05-02T02:05:01;99331.47;;;7.04;84.69
69980;BME280;57318;56.232;43.944;2023-05-02T02:07:29;99335.91;;;7.03;84.93
69980;BME280;57318;56.232;43.944;2023-05-02T02:09:55;99341.84;;;7.07;84.75
69980;BME280;57318;56.232;43.944;2023-05-02T02:12:25;99344.56;;;7.05;84.65
69980;BME280;57318;56.232;43.944;2023-05-02T02:18:01;99366.38;;;7.09;84.86
69980;BME280;57318;56.232;43.944;2023-05-02T02:20:28;99360.13;;;7.10;84.90
69980;BME280;57318;56.232;43.944;2023-05-02T02:22:55;99365.41;;;7.10;84.90
69980;BME280;57318;56.232;43.944;2023-05-02T02:25:22;99372.50;;;7.10;84.93
69980;BME280;57318;56.232;43.944;2023-05-02T02:27:49;99378.53;;;7.12;84.84
69980;BME280;57318;56.232;43.944;2023-05-02T02:30:15;99377.78;;;7.10;84.81
69980;BME280;57318;56.232;43.944;2023-05-02T02:32:41;99379.50;;;7.11;84.60
69980;BME280;57318;56.232;43.944;2023-05-02T02:35:07;99376.53;;;7.15;84.60
69980;BME280;57318;56.232;43.944;2023-05-02T02:38:03;99380.44;;;7.22;84.15
69980;BME280;57318;56.232;43.944;2023-05-02T02:40:33;99382.06;;;7.25;83.72
69980;BME280;57318;56.232;43.944;2023-05-02T02:43:13;99380.97;;;7.28;83.45
69980;BME280;57318;56.232;43.944;2023-05-02T02:51:10;99389.66;;;7.30;83.09
69980;BME280;57318;56.232;43.944;2023-05-02T02:56:21;99410.25;;;7.25;82.64
69980;BME280;57318;56.232;43.944;2023-05-02T02:59:02;99406.88;;;7.22;82.33
69980;BME280;57318;56.232;43.944;2023-05-02T03:01:30;99403.06;;;7.14;82.08
69980;BME280;57318;56.232;43.944;2023-05-02T03:03:57;99404.75;;;7.15;82.00
69980;BME280;57318;56.232;43.944;2023-05-02T03:06:23;99414.47;;;7.14;82.01
69980;BME280;57318;56.232;43.944;2023-05-02T03:08:49;99418.72;;;7.17;81.93
69980;BME280;57318;56.232;43.944;2023-05-02T03:11:15;99425.56;;;7.19;81.74
69980;BME280;57318;56.232;43.944;2023-05-02T03:13:41;99415.22;;;7.16;81.40
69980;BME280;57318;56.232;43.944;2023-05-02T03:16:30;99423.81;;;7.20;81.26
69980;BME280;57318;56.232;43.944;2023-05-02T03:18:57;99431.59;;;7.21;81.05
69980;BME280;57318;56.232;43.944;2023-05-02T03:21:22;99433.72;;;7.16;81.04
69980;BME280;57318;56.232;43.944;2023-05-02T03:23:48;99424.22;;;7.27;80.98
69980;BME280;57318;56.232;43.944;2023-05-02T03:26:15;99417.66;;;7.32;80.79
69980;BME280;57318;56.232;43.944;2023-05-02T03:28:41;99432.81;;;7.43;80.34
69980;BME280;57318;56.232;43.944;2023-05-02T03:31:07;99437.19;;;7.57;79.73
69980;BME280;57318;56.232;43.944;2023-05-02T03:33:33;99430.22;;;7.69;79.18
69980;BME280;57318;56.232;43.944;2023-05-02T03:35:59;99431.91;;;7.83;78.35
69980;BME280;57318;56.232;43.944;2023-05-02T03:38:24;99435.50;;;7.94;77.65
69980;BME280;57318;56.232;43.944;2023-05-02T03:40:50;99440.16;;;8.04;77.03
69980;BME280;57318;56.232;43.944;2023-05-02T03:43:16;99437.00;;;8.11;76.78
69980;BME280;57318;56.232;43.944;2023-05-02T03:45:41;99448.81;;;8.19;76.07
69980;BME280;57318;56.232;43.944;2023-05-02T03:48:07;99461.09;;;8.32;75.90
69980;BME280;57318;56.232;43.944;2023-05-02T03:50:33;99462.69;;;8.35;75.29
69980;BME280;57318;56.232;43.944;2023-05-02T03:52:58;99472.13;;;8.52;74.94
69980;BME280;57318;56.232;43.944;2023-05-02T03:55:24;99473.38;;;8.59;74.18
69980;BME280;57318;56.232;43.944;2023-05-02T03:57:50;99481.09;;;8.62;73.86
69980;BME280;57318;56.232;43.944;2023-05-02T04:00:15;99487.44;;;8.73;73.38
69980;BME280;57318;56.232;43.944;2023-05-02T04:02:41;99493.75;;;8.83;72.84
69980;BME280;57318;56.232;43.944;2023-05-02T04:05:07;99495.75;;;8.92;72.47
69980;BME280;57318;56.232;43.944;2023-05-02T04:07:34;99494.47;;;8.98;72.14
69980;BME280;57318;56.232;43.944;2023-05-02T04:09:59;99501.75;;;8.94;71.93
69980;BME280;57318;56.232;43.944;2023-05-02T04:12:25;99498.28;;;8.94;71.90
69980;BME280;57318;56.232;43.944;2023-05-02T04:14:51;99495.22;;;8.87;71.91
69980;BME280;57318;56.232;43.944;2023-05-02T04:17:17;99506.06;;;8.84;72.08
69980;BME280;57318;56.232;43.944;2023-05-02T04:19:42;99505.84;;;8.87;72.14
69980;BME280;57318;56.232;43.944;2023-05-02T04:22:08;99513.56;;;8.90;72.03
69980;BME280;57318;56.232;43.944;2023-05-02T04:24:34;99512.38;;;8.94;71.93
69980;BME280;57318;56.232;43.944;2023-05-02T04:26:59;99514.56;;;9.00;71.61
69980;BME280;57318;56.232;43.944;2023-05-02T04:29:25;99518.94;;;9.01;71.45
69980;BME280;57318;56.232;43.944;2023-05-02T04:31:51;99520.31;;;8.94;71.77
69980;BME280;57318;56.232;43.944;2023-05-02T04:34:18;99521.59;;;9.01;72.05
69980;BME280;57318;56.232;43.944;2023-05-02T04:36:45;99531.25;;;9.02;71.87
69980;BME280;57318;56.232;43.944;2023-05-02T04:39:11;99533.88;;;9.02;72.04
69980;BME280;57318;56.232;43.944;2023-05-02T04:41:36;99537.78;;;9.10;71.97
69980;BME280;57318;56.232;43.944;2023-05-02T04:44:02;99538.41;;;9.13;71.87
69980;BME280;57318;56.232;43.944;2023-05-02T04:46:28;99532.97;;;9.15;71.08
69980;BME280;57318;56.232;43.944;2023-05-02T04:48:54;99543.81;;;9.12;71.06
69980;BME280;57318;56.232;43.944;2023-05-02T04:51:19;99539.25;;;9.14;71.04
69980;BME280;57318;56.232;43.944;2023-05-02T04:53:45;99545.28;;;9.16;71.13
69980;BME280;57318;56.232;43.944;2023-05-02T04:56:11;99543.56;;;9.15;70.94
69980;BME280;57318;56.232;43.944;2023-05-02T04:58:37;99553.47;;;9.13;71.17
69980;BME280;57318;56.232;43.944;2023-05-02T05:01:03;99552.19;;;9.18;71.01
69980;BME280;57318;56.232;43.944;2023-05-02T05:03:28;99557.53;;;9.30;71.11
69980;BME280;57318;56.232;43.944;2023-05-02T05:05:55;99563.34;;;9.35;70.80
69980;BME280;57318;56.232;43.944;2023-05-02T05:08:21;99565.78;;;9.38;70.35
69980;BME280;57318;56.232;43.944;2023-05-02T05:10:47;99561.50;;;9.48;69.99
69980;BME280;57318;56.232;43.944;2023-05-02T05:13:12;99570.56;;;9.57;69.29
69980;BME280;57318;56.232;43.944;2023-05-02T05:15:39;99573.09;;;9.58;68.63
69980;BME280;57318;56.232;43.944;2023-05-02T05:18:05;99584.59;;;9.59;68.55
69980;BME280;57318;56.232;43.944;2023-05-02T05:20:31;99583.72;;;9.58;68.50
69980;BME280;57318;56.232;43.944;2023-05-02T05:22:58;99588.88;;;9.49;68.51
69980;BME280;57318;56.232;43.944;2023-05-02T05:25:27;99585.94;;;9.41;68.79
69980;BME280;57318;56.232;43.944;2023-05-02T05:27:52;99589.75;;;9.36;68.76
69980;BME280;57318;56.232;43.944;2023-05-02T05:30:20;99586.78;;;9.41;69.10
69980;BME280;57318;56.232;43.944;2023-05-02T05:32:46;99592.47;;;9.48;68.65
69980;BME280;57318;56.232;43.944;2023-05-02T05:35:12;99597.75;;;9.48;68.68
69980;BME280;57318;56.232;43.944;2023-05-02T05:37:38;99595.97;;;9.48;68.77
69980;BME280;57318;56.232;43.944;2023-05-02T05:40:07;99604.56;;;9.52;68.79
69980;BME280;57318;56.232;43.944;2023-05-02T05:42:34;99602.41;;;9.57;68.39
69980;BME280;57318;56.232;43.944;2023-05-02T05:45:00;99608.63;;;9.69;68.14
69980;BME280;57318;56.232;43.944;2023-05-02T05:47:25;99606.13;;;9.79;67.63
69980;BME280;57318;56.232;43.944;2023-05-02T05:49:54;99612.91;;;9.83;67.46
69980;BME280;57318;56.232;43.944;2023-05-02T05:52:21;99608.44;;;9.83;67.56
69980;BME280;57318;56.232;43.944;2023-05-02T05:54:47;99613.41;;;9.88;67.37
69980;BME280;57318;56.232;43.944;2023-05-02T05:57:12;99623.31;;;9.86;67.76
69980;BME280;57318;56.232;43.944;2023-05-02T05:59:38;99627.38;;;9.79;67.97
69980;BME280;57318;56.232;43.944;2023-05-02T06:02:04;99631.91;;;9.65;68.60
69980;BME280;57318;56.232;43.944;2023-05-02T06:04:30;99621.84;;;9.57;68.82
69980;BME280;57318;56.232;43.944;2023-05-02T06:06:56;99628.09;;;9.56;69.15
69980;BME280;57318;56.232;43.944;2023-05-02T06:09:21;99624.50;;;9.57;68.93
69980;BME280;57318;56.232;43.944;2023-05-02T06:11:47;99627.16;;;9.57;68.85
69980;BME280;57318;56.232;43.944;2023-05-02T06:14:13;99634.00;;;9.60;68.65
69980;BME280;57318;56.232;43.944;2023-05-02T06:16:39;99632.72;;;9.66;68.48
69980;BME280;57318;56.232;43.944;2023-05-02T06:19:04;99643.00;;;9.70;67.84
69980;BME280;57318;56.232;43.944;2023-05-02T06:21:30;99645.00;;;9.80;67.74
69980;BME280;57318;56.232;43.944;2023-05-02T06:23:56;99634.25;;;9.81;67.59
69980;BME280;57318;56.232;43.944;2023-05-02T06:26:22;99648.59;;;9.79;67.56
69980;BME280;57318;56.232;43.944;2023-05-02T06:28:48;99650.53;;;9.77;67.78
69980;BME280;57318;56.232;43.944;2023-05-02T06:31:13;99654.75;;;9.79;67.82
69980;BME280;57318;56.232;43.944;2023-05-02T06:33:40;99655.88;;;9.88;67.60
69980;BME280;57318;56.232;43.944;2023-05-02T06:36:07;99650.34;;;9.91;67.10
69980;BME280;57318;56.232;43.944;2023-05-02T06:38:32;99661.47;;;9.96;66.98
69980;BME280;57318;56.232;43.944;2023-05-02T06:40:58;99651.06;;;9.93;66.39
69980;BME280;57318;56.232;43.944;2023-05-02T06:43:24;99656.28;;;9.94;66.37
69980;BME280;57318;56.232;43.944;2023-05-02T06:45:53;99656.53;;;10.03;66.49
69980;BME280;57318;56.232;43.944;2023-05-02T06:48:19;99660.00;;;10.16;65.79
69980;BME280;57318;56.232;43.944;2023-05-02T06:50:46;99661.97;;;10.25;65.56
69980;BME280;57318;56.232;43.944;2023-05-02T06:53:12;99655.53;;;10.28;65.61
69980;BME280;57318;56.232;43.944;2023-05-02T06:55:38;99660.84;;;10.41;65.18
69980;BME280;57318;56.232;43.944;2023-05-02T06:58:04;99657.97;;;10.55;64.14
69980;BME280;57318;56.232;43.944;2023-05-02T07:00:30;99670.56;;;10.76;63.00
69980;BME280;57318;56.232;43.944;2023-05-02T07:02:55;99671.56;;;11.09;62.23
69980;BME280;57318;56.232;43.944;2023-05-02T07:05:21;99672.88;;;11.37;61.32
69980;BME280;57318;56.232;43.944;2023-05-02T07:07:47;99670.66;;;11.65;60.08
69980;BME280;57318;56.232;43.944;2023-05-02T07:10:12;99671.06;;;11.60;59.68
69980;BME280;57318;56.232;43.944;2023-05-02T07:12:38;99680.13;;;11.58;59.40
69980;BME280;57318;56.232;43.944;2023-05-02T07:15:05;99682.66;;;11.59;59.89
69980;BME280;57318;56.232;43.944;2023-05-02T07:17:31;99685.06;;;11.62;59.86
69980;BME280;57318;56.232;43.944;2023-05-02T07:19:57;99684.97;;;11.52;60.08
69980;BME280;57318;56.232;43.944;2023-05-02T07:22:22;99682.31;;;11.41;59.99
69980;BME280;57318;56.232;43.944;2023-05-02T07:24:56;99675.44;;;11.27;60.56
69980;BME280;57318;56.232;43.944;2023-05-02T07:27:22;99688.97;;;11.47;60.54
69980;BME280;57318;56.232;43.944;2023-05-02T07:29:47;99694.00;;;11.72;59.64
69980;BME280;57318;56.232;43.944;2023-05-02T07:32:13;99692.19;;;11.73;59.26
69980;BME280;57318;56.232;43.944;2023-05-02T07:34:39;99696.66;;;11.84;58.83
69980;BME280;57318;56.232;43.944;2023-05-02T07:37:04;99696.53;;;11.85;58.79
69980;BME280;57318;56.232;43.944;2023-05-02T07:39:31;99696.28;;;11.88;58.71
69980;BME280;57318;56.232;43.944;2023-05-02T07:41:57;99702.31;;;11.90;58.65
69980;BME280;57318;56.232;43.944;2023-05-02T07:44:23;99700.03;;;11.97;58.63
69980;BME280;57318;56.232;43.944;2023-05-02T07:46:49;99698.56;;;11.93;58.99
69980;BME280;57318;56.232;43.944;2023-05-02T07:49:16;99701.59;;;11.77;59.15
69980;BME280;57318;56.232;43.944;2023-05-02T07:51:42;99705.41;;;11.63;59.98
69980;BME280;57318;56.232;43.944;2023-05-02T07:54:18;99700.81;;;11.43;60.80
69980;BME280;57318;56.232;43.944;2023-05-02T07:56:44;99710.50;;;11.32;61.25
69980;BME280;57318;56.232;43.944;2023-05-02T07:59:11;99712.31;;;11.32;61.38
69980;BME280;57318;56.232;43.944;2023-05-02T08:01:38;99711.34;;;11.33;60.99
69980;BME280;57318;56.232;43.944;2023-05-02T08:04:13;99717.41;;;11.46;60.29
69980;BME280;57318;56.232;43.944;2023-05-02T08:06:39;99710.00;;;11.61;58.99
69980;BME280;57318;56.232;43.944;2023-05-02T08:09:05;99710.09;;;11.94;58.88
69980;BME280;57318;56.232;43.944;2023-05-02T08:11:30;99719.91;;;12.25;57.75
69980;BME280;57318;56.232;43.944;2023-05-02T08:13:56;99720.34;;;12.42;56.74
69980;BME280;57318;56.232;43.944;2023-05-02T08:16:22;99721.19;;;12.42;56.17
69980;BME280;57318;56.232;43.944;2023-05-02T08:18:47;99721.91;;;12.44;56.28
69980;BME280;57318;56.232;43.944;2023-05-02T08:21:14;99715.47;;;12.47;55.90
69980;BME280;57318;56.232;43.944;2023-05-02T08:23:40;99717.31;;;12.68;55.58
69980;BME280;57318;56.232;43.944;2023-05-02T08:26:06;99727.50;;;12.84;55.01
69980;BME280;57318;56.232;43.944;2023-05-02T08:28:32;99731.94;;;12.94;54.63
69980;BME280;57318;56.232;43.944;2023-05-02T08:30:58;99738.03;;;13.06;54.27
69980;BME280;57318;56.232;43.944;2023-05-02T08:33:24;99739.19;;;13.13;54.35
69980;BME280;57318;56.232;43.944;2023-05-02T08:35:49;99739.84;;;13.27;53.98
69980;BME280;57318;56.232;43.944;2023-05-02T08:38:16;99741.13;;;13.32;54.21
69980;BME280;57318;56.232;43.944;2023-05-02T08:40:41;99755.53;;;13.20;53.97
69980;BME280;57318;56.232;43.944;2023-05-02T08:43:07;99753.13;;;13.17;54.04
69980;BME280;57318;56.232;43.944;2023-05-02T08:45:39;99755.47;;;13.10;53.83
69980;BME280;57318;56.232;43.944;2023-05-02T08:48:07;99754.47;;;13.02;54.18
69980;BME280;57318;56.232;43.944;2023-05-02T08:50:37;99754.84;;;12.97;54.64
69980;BME280;57318;56.232;43.944;2023-05-02T08:53:04;99755.59;;;13.09;54.35
69980;BME280;57318;56.232;43.944;2023-05-02T08:55:33;99746.81;;;13.18;53.97
69980;BME280;57318;56.232;43.944;2023-05-02T08:57:59;99750.25;;;13.30;53.80
69980;BME280;57318;56.232;43.944;2023-05-02T09:00:27;99757.13;;;13.32;53.47
69980;BME280;57318;56.232;43.944;2023-05-02T09:05:37;99763.44;;;13.31;53.71
69980;BME280;57318;56.232;43.944;2023-05-02T09:08:04;99760.75;;;13.43;53.44
69980;BME280;57318;56.232;43.944;2023-05-02T09:10:30;99756.38;;;13.42;53.26
69980;BME280;57318;56.232;43.944;2023-05-02T09:12:56;99755.63;;;13.70;53.11
69980;BME280;57318;56.232;43.944;2023-05-02T09:16:37;99760.91;;;13.92;52.59
69980;BME280;57318;56.232;43.944;2023-05-02T09:18:47;99757.72;;;13.98;51.98
69980;BME280;57318;56.232;43.944;2023-05-02T09:21:18;99766.41;;;14.00;52.06
69980;BME280;57318;56.232;43.944;2023-05-02T09:23:48;99752.38;;;14.07;51.97
69980;BME280;57318;56.232;43.944;2023-05-02T09:26:23;99764.50;;;14.12;52.00
69980;BME280;57318;56.232;43.944;2023-05-02T09:28:53;99765.91;;;14.25;51.77
69980;BME280;57318;56.232;43.944;2023-05-02T09:31:24;99760.59;;;14.35;51.24
69980;BME280;57318;56.232;43.944;2023-05-02T09:33:55;99766.91;;;14.54;50.13
69980;BME280;57318;56.232;43.944;2023-05-02T09:36:22;99767.22;;;14.70;49.91
69980;BME280;57318;56.232;43.944;2023-05-02T09:38:49;99770.44;;;14.84;49.81
69980;BME280;57318;56.232;43.944;2023-05-02T09:41:17;99771.69;;;15.09;49.24
69980;BME280;57318;56.232;43.944;2023-05-02T09:43:54;99771.13;;;15.52;48.16
69980;BME280;57318;56.232;43.944;2023-05-02T09:46:21;99772.41;;;15.86;47.24
69980;BME280;57318;56.232;43.944;2023-05-02T09:48:56;99776.53;;;16.08;47.21
69980;BME280;57318;56.232;43.944;2023-05-02T09:51:26;99770.06;;;16.29;46.63
69980;BME280;57318;56.232;43.944;2023-05-02T09:53:52;99772.91;;;16.45;45.48
69980;BME280;57318;56.232;43.944;2023-05-02T09:56:17;99764.56;;;16.48;45.59
69980;BME280;57318;56.232;43.944;2023-05-02T09:58:44;99766.72;;;17.25;44.98
69980;BME280;57318;56.232;43.944;2023-05-02T10:01:17;99773.38;;;18.16;43.12
69980;BME280;57318;56.232;43.944;2023-05-02T10:03:46;99768.06;;;18.73;41.49
69980;BME280;57318;56.232;43.944;2023-05-02T10:06:12;99772.38;;;19.57;40.06
69980;BME280;57318;56.232;43.944;2023-05-02T10:08:41;99774.19;;;20.44;38.14
69980;BME280;57318;56.232;43.944;2023-05-02T10:11:08;99778.25;;;21.09;36.28
69980;BME280;57318;56.232;43.944;2023-05-02T10:13:37;99777.22;;;21.78;34.64
69980;BME280;57318;56.232;43.944;2023-05-02T10:16:05;99770.75;;;21.94;33.99
69980;BME280;57318;56.232;43.944;2023-05-02T10:18:46;99769.66;;;22.40;33.20
69980;BME280;57318;56.232;43.944;2023-05-02T10:21:16;99769.41;;;22.78;32.30
69980;BME280;57318;56.232;43.944;2023-05-02T10:23:44;99770.28;;;23.63;30.85
69980;BME280;57318;56.232;43.944;2023-05-02T10:26:15;99761.63;;;24.36;29.89
69980;BME280;57318;56.232;43.944;2023-05-02T10:28:41;99767.38;;;25.01;29.21
69980;BME280;57318;56.232;43.944;2023-05-02T10:31:12;99762.97;;;25.07;28.18
69980;BME280;57318;56.232;43.944;2023-05-02T10:33:39;99766.97;;;25.38;28.25
69980;BME280;57318;56.232;43.944;2023-05-02T10:36:09;99760.69;;;25.31;27.66
69980;BME280;57318;56.232;43.944;2023-05-02T10:38:37;99758.38;;;25.01;28.13
69980;BME280;57318;56.232;43.944;2023-05-02T10:41:13;99758.16;;;24.96;27.87
69980;BME280;57318;56.232;43.944;2023-05-02T10:43:45;99760.03;;;25.49;27.76
69980;BME280;57318;56.232;43.944;2023-05-02T10:46:34;99759.22;;;25.48;27.35
69980;BME280;57318;56.232;43.944;2023-05-02T10:49:05;99755.41;;;25.49;27.35
69980;BME280;57318;56.232;43.944;2023-05-02T10:51:32;99753.16;;;24.93;27.76
69980;BME280;57318;56.232;43.944;2023-05-02T10:57:04;99755.66;;;24.88;27.65
69980;BME280;57318;56.232;43.944;2023-05-02T10:59:36;99754.75;;;24.40;28.37
69980;BME280;57318;56.232;43.944;2023-05-02T11:05:02;99760.41;;;25.59;26.77
69980;BME280;57318;56.232;43.944;2023-05-02T11:07:36;99766.38;;;26.01;25.58
69980;BME280;57318;56.232;43.944;2023-05-02T11:12:56;99762.09;;;26.19;25.66
69980;BME280;57318;56.232;43.944;2023-05-02T11:17:58;99752.06;;;26.19;24.98
69980;BME280;57318;56.232;43.944;2023-05-02T11:20:25;99751.66;;;25.50;26.10
69980;BME280;57318;56.232;43.944;2023-05-02T11:22:51;99754.63;;;24.89;26.65
69980;BME280;57318;56.232;43.944;2023-05-02T11:25:31;99747.13;;;24.09;27.51
69980;BME280;57318;56.232;43.944;2023-05-02T11:27:57;99756.44;;;23.51;28.36
69980;BME280;57318;56.232;43.944;2023-05-02T11:30:43;99753.69;;;24.41;27.55
69980;BME280;57318;56.232;43.944;2023-05-02T11:33:13;99752.72;;;24.96;26.97
69980;BME280;57318;56.232;43.944;2023-05-02T11:35:42;99755.03;;;25.19;26.68
69980;BME280;57318;56.232;43.944;2023-05-02T11:38:12;99746.25;;;24.70;26.96
69980;BME280;57318;56.232;43.944;2023-05-02T11:40:38;99737.06;;;23.96;27.63
69980;BME280;57318;56.232;43.944;2023-05-02T11:43:24;99741.44;;;23.97;27.57
69980;BME280;57318;56.232;43.944;2023-05-02T11:45:51;99740.63;;;24.92;26.63
69980;BME280;57318;56.232;43.944;2023-05-02T11:48:18;99741.88;;;26.01;25.16
69980;BME280;57318;56.232;43.944;2023-05-02T11:50:49;99747.53;;;25.93;24.71
69980;BME280;57318;56.232;43.944;2023-05-02T11:53:17;99743.53;;;25.10;25.76
69980;BME280;57318;56.232;43.944;2023-05-02T11:55:48;99746.78;;;24.32;26.90
69980;BME280;57318;56.232;43.944;2023-05-02T11:58:21;99737.94;;;23.27;28.18
69980;BME280;57318;56.232;43.944;2023-05-02T12:00:48;99738.47;;;22.44;29.48
69980;BME280;57318;56.232;43.944;2023-05-02T12:03:25;99750.16;;;21.48;30.98
69980;BME280;57318;56.232;43.944;2023-05-02T12:05:51;99745.88;;;21.39;31.04
69980;BME280;57318;56.232;43.944;2023-05-02T12:08:22;99758.41;;;21.70;30.80
69980;BME280;57318;56.232;43.944;2023-05-02T12:10:49;99764.19;;;21.67;31.31
69980;BME280;57318;56.232;43.944;2023-05-02T12:13:16;99764.84;;;21.54;31.38
69980;BME280;57318;56.232;43.944;2023-05-02T12:15:42;99769.38;;;21.83;30.58
69980;BME280;57318;56.232;43.944;2023-05-02T12:18:08;99766.09;;;22.03;29.89
69980;BME280;57318;56.232;43.944;2023-05-02T12:20:35;99762.41;;;22.25;29.48
69980;BME280;57318;56.232;43.944;2023-05-02T12:23:03;99756.78;;;22.63;28.72
69980;BME280;57318;56.232;43.944;2023-05-02T12:25:35;99762.56;;;22.82;29.01
69980;BME280;57318;56.232;43.944;2023-05-02T12:28:01;99760.53;;;22.62;29.21
69980;BME280;57318;56.232;43.944;2023-05-02T12:30:29;99757.56;;;22.21;29.75
69980;BME280;57318;56.232;43.944;2023-05-02T12:33:04;99750.19;;;21.78;29.66
69980;BME280;57318;56.232;43.944;2023-05-02T12:35:31;99747.25;;;21.20;30.43
69980;BME280;57318;56.232;43.944;2023-05-02T12:38:15;99750.69;;;20.76;31.82
69980;BME280;57318;56.232;43.944;2023-05-02T12:40:54;99742.03;;;20.57;32.54
69980;BME280;57318;56.232;43.944;2023-05-02T12:43:22;99741.34;;;21.01;32.20
69980;BME280;57318;56.232;43.944;2023-05-02T12:45:48;99747.00;;;21.59;31.38
69980;BME280;57318;56.232;43.944;2023-05-02T12:48:24;99742.81;;;22.23;30.70
69980;BME280;57318;56.232;43.944;2023-05-02T12:50:51;99742.84;;;22.66;30.06
69980;BME280;57318;56.232;43.944;2023-05-02T12:53:36;99736.50;;;23.31;29.02
69980;BME280;57318;56.232;43.944;2023-05-02T12:56:03;99737.53;;;23.30;29.21
69980;BME280;57318;56.232;43.944;2023-05-02T12:58:45;99739.91;;;23.11;29.22
69980;BME280;57318;56.232;43.944;2023-05-02T13:01:13;99723.75;;;22.75;29.37
69980;BME280;57318;56.232;43.944;2023-05-02T13:03:40;99722.63;;;22.41;29.91
69980;BME280;57318;56.232;43.944;2023-05-02T13:06:06;99722.31;;;22.14;30.59
69980;BME280;57318;56.232;43.944;2023-05-02T13:08:33;99722.06;;;21.94;30.46
69980;BME280;57318;56.232;43.944;2023-05-02T13:11:00;99730.72;;;21.53;31.31
69980;BME280;57318;56.232;43.944;2023-05-02T13:13:27;99728.16;;;21.21;31.54
69980;BME280;57318;56.232;43.944;2023-05-02T13:15:54;99729.53;;;21.02;31.79
69980;BME280;57318;56.232;43.944;2023-05-02T13:18:20;99725.16;;;21.16;31.52
69980;BME280;57318;56.232;43.944;2023-05-02T13:20:46;99728.16;;;21.06;31.50
69980;BME280;57318;56.232;43.944;2023-05-02T13:23:11;99726.50;;;20.82;32.08
69980;BME280;57318;56.232;43.944;2023-05-02T13:25:37;99730.59;;;20.55;32.49
69980;BME280;57318;56.232;43.944;2023-05-02T13:28:03;99723.66;;;20.29;32.75
69980;BME280;57318;56.232;43.944;2023-05-02T13:30:29;99731.09;;;20.27;32.93
69980;BME280;57318;56.232;43.944;2023-05-02T13:32:55;99726.22;;;20.77;32.51
69980;BME280;57318;56.232;43.944;2023-05-02T13:35:23;99730.66;;;21.23;31.79